Sp Dublin — 9HA2661 — position and weather

sailwx.info

Track history (hours):
 
Tides and Currents Weather Stations Pressure Air Temp Water Temp Dewpoint Dewpoint Depression Visibility Wind Speed Wind Dir Waves Ship Positions

Sp Dublin

Last reported at 2014-Jul-23 23:30 UTC. Time now 2014-Jul-24 00:20 UTC.
Position N 39°32' W 000°15'.

Length 83 m; draft 5.6 m.

Type: Tanker. MMSI: 215164000.

Date/timePositionNaut miles runAvg speedWind from/ knotsBaromVisibWave heightAir tempDewpointWater temp
2014-Jul-23 23:30N 39°32' W 000°15'2 0.3
2014-Jul-23 16:04N 39°34' W 000°14'4 6.9
2014-Jul-23 15:33N 39°31' W 000°16'5 4.7
2014-Jul-23 14:33N 39°27' W 000°19'0 0.2
2014-Jul-23 13:33N 39°27' W 000°19'1 0.7
2014-Jul-23 12:33N 39°26' W 000°19'0 0.0
2014-Jul-23 11:33N 39°26' W 000°19'0 0.0
2014-Jul-23 10:33N 39°26' W 000°19'0 0.0
2014-Jul-23 09:33N 39°26' W 000°19'0 0.0
2014-Jul-23 08:33N 39°26' W 000°19'0 0.0
2014-Jul-23 07:33N 39°26' W 000°19'1 1.0
2014-Jul-23 06:28N 39°27' W 000°19'0 0.0
2014-Jul-23 05:33N 39°27' W 000°19'0 0.0
2014-Jul-23 04:34N 39°27' W 000°19'0 0.0
2014-Jul-23 03:33N 39°27' W 000°19'0 0.3
2014-Jul-23 02:34N 39°27' W 000°18'0 0.0
2014-Jul-23 01:06N 39°27' W 000°18'0 0.0
2014-Jul-23 00:25N 39°27' W 000°18'0 0.4
2014-Jul-22 23:33N 39°27' W 000°19'0 0.2
2014-Jul-22 22:34N 39°27' W 000°19'0 0.0
2014-Jul-22 21:33N 39°27' W 000°19'0 0.0
2014-Jul-22 20:34N 39°27' W 000°19'0 0.0
2014-Jul-22 19:34N 39°27' W 000°19'0 0.0
2014-Jul-22 18:33N 39°27' W 000°19'0 0.0
2014-Jul-22 17:34N 39°27' W 000°19'0 0.0
2014-Jul-22 16:33N 39°27' W 000°19'0 0.0
2014-Jul-22 15:34N 39°27' W 000°19'0 0.0
2014-Jul-22 14:34N 39°27' W 000°19'0 0.0
2014-Jul-22 13:34N 39°27' W 000°19'0 0.0
2014-Jul-22 12:33N 39°27' W 000°19'0 0.0
2014-Jul-22 11:34N 39°27' W 000°19'0 0.0
2014-Jul-22 10:34N 39°27' W 000°19'0 0.0
2014-Jul-22 09:34N 39°27' W 000°19'0 0.0
2014-Jul-22 08:33N 39°27' W 000°19'0 0.0
2014-Jul-22 07:33N 39°27' W 000°19'0 0.0
2014-Jul-22 06:34N 39°27' W 000°19'0 0.0
2014-Jul-22 05:33N 39°27' W 000°19'0 0.0
2014-Jul-22 04:34N 39°27' W 000°19'0 0.0
2014-Jul-22 03:34N 39°27' W 000°19'0 0.0
2014-Jul-22 02:34N 39°27' W 000°19'0 0.0
2014-Jul-22 01:34N 39°27' W 000°19'0 0.0
2014-Jul-22 00:34N 39°27' W 000°19'0 0.0
2014-Jul-21 23:34N 39°27' W 000°19'0 0.0
2014-Jul-21 22:34N 39°27' W 000°19'0 0.0
2014-Jul-21 21:34N 39°27' W 000°19'0 0.0
2014-Jul-21 20:34N 39°27' W 000°19'0 0.0
2014-Jul-21 20:18N 39°27' W 000°19'0 0.0
2014-Jul-21 19:34N 39°27' W 000°19'0 0.0
2014-Jul-21 18:34N 39°27' W 000°19'0 0.0
2014-Jul-21 17:34N 39°27' W 000°19'0 0.0
2014-Jul-21 16:34N 39°27' W 000°19'0 0.0
2014-Jul-21 15:33N 39°27' W 000°19'0 0.0
2014-Jul-21 14:33N 39°27' W 000°19'0 0.0
2014-Jul-21 13:34N 39°27' W 000°19'0 0.0
2014-Jul-21 12:34N 39°27' W 000°19'1 0.5
2014-Jul-21 11:32N 39°27' W 000°19'0 0.0
2014-Jul-21 09:33N 39°27' W 000°19'0 0.0
2014-Jul-21 08:33N 39°27' W 000°19'0 0.0
2014-Jul-21 07:33N 39°27' W 000°19'1 0.8
2014-Jul-21 06:33N 39°26' W 000°19'1 0.5
2014-Jul-21 05:34N 39°26' W 000°20'0 0.0
2014-Jul-21 04:34N 39°26' W 000°20'0 0.0
2014-Jul-21 03:34N 39°26' W 000°20'0 0.0
2014-Jul-21 02:34N 39°26' W 000°20'0 0.0
2014-Jul-21 01:33N 39°26' W 000°20'0 0.0
2014-Jul-21 00:33N 39°26' W 000°20'1 1.2
2014-Jul-20 23:33N 39°27' W 000°19'0 0.0
2014-Jul-20 22:33N 39°27' W 000°19'0 0.0
2014-Jul-20 21:33N 39°27' W 000°19'0 0.0
2014-Jul-20 20:34N 39°27' W 000°19'0 0.0
2014-Jul-20 19:33N 39°27' W 000°19'0 0.0
2014-Jul-20 18:34N 39°27' W 000°19'0 0.0
2014-Jul-20 17:34N 39°27' W 000°19'0 0.0
2014-Jul-20 16:34N 39°27' W 000°19'0 0.0
2014-Jul-20 15:34N 39°27' W 000°19'0 0.0
2014-Jul-20 14:34N 39°27' W 000°19'0 0.0
2014-Jul-20 13:27N 39°27' W 000°19'0 0.0
2014-Jul-20 12:34N 39°27' W 000°19'0 0.0
2014-Jul-20 11:33N 39°27' W 000°19'0 0.5
2014-Jul-20 10:34N 39°26' W 000°19'0 0.4
2014-Jul-20 09:33N 39°27' W 000°18'0 0.0
2014-Jul-20 08:33N 39°27' W 000°18'0 0.1
2014-Jul-20 07:34N 39°27' W 000°18'1 0.9
2014-Jul-20 06:33N 39°26' W 000°19'0 0.0
2014-Jul-20 05:33N 39°26' W 000°19'0 0.0
2014-Jul-20 04:34N 39°26' W 000°19'0 0.0
2014-Jul-20 03:30N 39°26' W 000°19'0 0.0
2014-Jul-20 02:33N 39°26' W 000°19'1 1.0
2014-Jul-20 01:33N 39°27' W 000°19'0 0.0
2014-Jul-20 00:33N 39°27' W 000°19'0 0.0
2014-Jul-19 23:33N 39°27' W 000°19'0 0.0
2014-Jul-19 22:33N 39°27' W 000°19'1 0.8
2014-Jul-19 21:33N 39°26' W 000°19'0 0.0
2014-Jul-19 20:33N 39°26' W 000°19'0 0.0
2014-Jul-19 19:34N 39°26' W 000°19'0 0.0
2014-Jul-19 18:33N 39°26' W 000°19'1 0.7
2014-Jul-19 17:33N 39°27' W 000°19'0 0.0
2014-Jul-19 16:33N 39°27' W 000°19'0 0.0
2014-Jul-19 15:34N 39°27' W 000°19'0 0.0
2014-Jul-19 14:34N 39°27' W 000°19'0 0.0
2014-Jul-19 13:34N 39°27' W 000°19'0 0.0
2014-Jul-19 12:34N 39°27' W 000°19'0 0.0
2014-Jul-19 11:33N 39°27' W 000°19'1 0.6
2014-Jul-19 10:33N 39°27' W 000°18'0 0.0
2014-Jul-19 09:33N 39°27' W 000°18'0 0.0
2014-Jul-19 08:33N 39°27' W 000°18'0 0.0
2014-Jul-19 07:33N 39°27' W 000°18'1 0.9
2014-Jul-19 06:33N 39°27' W 000°20'0 0.0
2014-Jul-19 05:34N 39°27' W 000°20'0 0.0
2014-Jul-19 04:33N 39°27' W 000°20'1 0.7
2014-Jul-19 03:34N 39°27' W 000°19'0 0.0
2014-Jul-19 02:34N 39°27' W 000°19'0 0.0
2014-Jul-19 01:33N 39°27' W 000°19'0 0.0
2014-Jul-19 00:33N 39°27' W 000°19'0 0.0
2014-Jul-18 23:33N 39°27' W 000°19'0 0.0
2014-Jul-18 22:33N 39°27' W 000°19'0 0.0
2014-Jul-18 21:33N 39°27' W 000°19'0 0.0
2014-Jul-18 20:34N 39°27' W 000°19'1 0.5
2014-Jul-18 19:33N 39°27' W 000°19'0 0.0
2014-Jul-18 18:34N 39°27' W 000°19'0 0.0
2014-Jul-18 17:34N 39°27' W 000°19'0 0.0
2014-Jul-18 16:33N 39°27' W 000°19'0 0.4
2014-Jul-18 15:34N 39°27' W 000°20'0 0.0
2014-Jul-18 14:33N 39°27' W 000°20'0 0.0
2014-Jul-18 13:33N 39°27' W 000°20'0 0.0
2014-Jul-18 12:33N 39°27' W 000°20'0 0.0
2014-Jul-18 11:33N 39°27' W 000°19'1 0.7
2014-Jul-18 10:33N 39°27' W 000°19'0 0.0
2014-Jul-18 09:33N 39°27' W 000°19'0 0.0
2014-Jul-18 08:33N 39°27' W 000°19'0 0.0
2014-Jul-18 07:34N 39°27' W 000°19'0 0.3
2014-Jul-18 06:33N 39°27' W 000°18'0 0.0
2014-Jul-18 05:33N 39°27' W 000°18'0 0.1
2014-Jul-18 04:33N 39°27' W 000°18'1 0.8
2014-Jul-18 03:34N 39°26' W 000°19'0 0.0
2014-Jul-18 02:33N 39°26' W 000°19'0 0.0
2014-Jul-18 01:30N 39°26' W 000°19'0 0.0
2014-Jul-18 00:33N 39°26' W 000°19'0 0.0
2014-Jul-17 23:34N 39°26' W 000°19'1 0.6
2014-Jul-17 22:34N 39°27' W 000°19'0 0.0
2014-Jul-17 21:34N 39°27' W 000°19'0 0.0
2014-Jul-17 20:33N 39°27' W 000°19'0 0.0
2014-Jul-17 19:33N 39°27' W 000°19'0 0.1
2014-Jul-17 18:32N 39°27' W 000°19'0 0.0
2014-Jul-17 17:32N 39°27' W 000°19'0 0.0
2014-Jul-17 16:26N 39°27' W 000°19'0 0.0
2014-Jul-17 15:33N 39°27' W 000°19'0 0.1
2014-Jul-17 14:33N 39°27' W 000°19'0 0.0
2014-Jul-17 13:33N 39°27' W 000°19'1 0.8
2014-Jul-17 12:33N 39°27' W 000°19'0 0.0
2014-Jul-17 11:33N 39°27' W 000°19'0 0.0
2014-Jul-17 10:33N 39°27' W 000°19'0 0.0
2014-Jul-17 09:33N 39°27' W 000°19'0 0.0
2014-Jul-17 08:33N 39°27' W 000°19'0 0.0
2014-Jul-17 07:33N 39°27' W 000°19'1 0.7
2014-Jul-17 06:33N 39°27' W 000°19'0 0.0
2014-Jul-17 05:33N 39°27' W 000°19'0 0.0
2014-Jul-17 04:33N 39°27' W 000°19'0 0.5
2014-Jul-17 03:33N 39°27' W 000°19'0 0.0
2014-Jul-17 02:33N 39°27' W 000°19'0 0.0
2014-Jul-17 01:33N 39°27' W 000°19'0 0.0
2014-Jul-17 00:33N 39°27' W 000°19'0 0.5
2014-Jul-16 23:34N 39°27' W 000°19'0 0.0
2014-Jul-16 22:33N 39°27' W 000°19'0 0.0
2014-Jul-16 21:33N 39°27' W 000°19'0 0.0
2014-Jul-16 20:33N 39°27' W 000°19'0 0.0
2014-Jul-16 19:33N 39°27' W 000°19'0 0.0
2014-Jul-16 18:33N 39°27' W 000°19'0 0.0
2014-Jul-16 17:33N 39°27' W 000°19'0 0.0
2014-Jul-16 16:33N 39°27' W 000°19'1 1.0
2014-Jul-16 15:33N 39°26' W 000°18'2 1.6
2014-Jul-16 14:33N 39°28' W 000°18'0 0.0
2014-Jul-16 13:33N 39°28' W 000°18'0 0.0
2014-Jul-16 12:33N 39°28' W 000°18'0 0.0
2014-Jul-16 11:33N 39°28' W 000°18'1 1.0
2014-Jul-16 10:33N 39°27' W 000°19'0 0.0
2014-Jul-16 09:33N 39°27' W 000°19'0 0.0
2014-Jul-16 08:33N 39°27' W 000°19'0 0.0
2014-Jul-16 07:33N 39°27' W 000°19'0 0.0
2014-Jul-16 06:33N 39°27' W 000°19'0 0.0
2014-Jul-16 05:33N 39°27' W 000°19'0 0.0
2014-Jul-16 04:33N 39°27' W 000°19'0 0.0
2014-Jul-16 03:33N 39°27' W 000°19'0 0.0
2014-Jul-16 02:33N 39°27' W 000°19'0 0.0
2014-Jul-16 01:34N 39°27' W 000°19'0 0.0
2014-Jul-16 00:33N 39°27' W 000°19'0 0.0
2014-Jul-15 23:33N 39°27' W 000°19'0 0.0
2014-Jul-15 22:34N 39°27' W 000°19'0 0.0
2014-Jul-15 21:33N 39°27' W 000°19'0 0.0
2014-Jul-15 20:33N 39°27' W 000°19'0 0.0
2014-Jul-15 19:33N 39°27' W 000°19'0 0.0
2014-Jul-15 18:33N 39°27' W 000°19'0 0.0
2014-Jul-15 17:33N 39°27' W 000°19'1 0.8
2014-Jul-15 16:34N 39°26' W 000°19'0 0.0
2014-Jul-15 15:33N 39°26' W 000°19'0 0.0
2014-Jul-15 14:33N 39°26' W 000°19'0 0.0
2014-Jul-15 13:33N 39°26' W 000°19'1 0.8
2014-Jul-15 12:32N 39°27' W 000°19'0 0.0
2014-Jul-15 11:28N 39°27' W 000°19'0 0.0
2014-Jul-15 10:33N 39°27' W 000°19'0 0.0
2014-Jul-15 09:33N 39°27' W 000°19'0 0.0
2014-Jul-15 08:33N 39°27' W 000°19'0 0.0
2014-Jul-15 07:32N 39°27' W 000°19'0 0.0
2014-Jul-15 06:33N 39°27' W 000°19'0 0.0
2014-Jul-15 05:33N 39°27' W 000°19'0 0.0
2014-Jul-15 04:33N 39°27' W 000°19'0 0.0
2014-Jul-15 03:33N 39°27' W 000°19'0 0.0
2014-Jul-15 02:32N 39°27' W 000°19'0 0.1
2014-Jul-15 01:33N 39°27' W 000°19'0 0.0
2014-Jul-15 00:13N 39°27' W 000°19'0 0.1
2014-Jul-14 23:29N 39°27' W 000°19'0 0.0
2014-Jul-14 22:33N 39°27' W 000°19'0 0.0
2014-Jul-14 21:30N 39°27' W 000°19'0 0.0
2014-Jul-14 20:21N 39°27' W 000°19'0 0.0
2014-Jul-14 19:15N 39°27' W 000°19'0 0.0
2014-Jul-14 18:33N 39°27' W 000°19'0 0.0
2014-Jul-14 17:17N 39°27' W 000°19'0 0.0
2014-Jul-14 16:32N 39°27' W 000°19'0 0.0
2014-Jul-14 15:33N 39°27' W 000°19'0 0.0
2014-Jul-14 14:33N 39°27' W 000°19'0 0.0
2014-Jul-14 13:33N 39°27' W 000°19'0 0.0
2014-Jul-14 12:18N 39°27' W 000°19'0 0.0
2014-Jul-14 11:32N 39°27' W 000°19'0 0.0
2014-Jul-14 10:26N 39°27' W 000°19'0 0.0
2014-Jul-14 09:33N 39°27' W 000°19'0 0.0
2014-Jul-14 08:33N 39°27' W 000°19'0 0.0
2014-Jul-14 07:30N 39°27' W 000°19'0 0.0
2014-Jul-14 06:33N 39°27' W 000°19'0 0.0
2014-Jul-14 05:15N 39°27' W 000°19'0 0.0
2014-Jul-14 04:33N 39°27' W 000°19'0 0.0
2014-Jul-14 03:30N 39°27' W 000°19'0 0.0
2014-Jul-14 02:33N 39°27' W 000°19'0 0.0
2014-Jul-14 01:33N 39°27' W 000°19'0 0.2
2014-Jul-14 00:29N 39°27' W 000°19'0 0.0
2014-Jul-13 23:33N 39°27' W 000°19'  
Track history (hours):
 
Tides and Currents Weather Stations Pressure Air Temp Water Temp Dewpoint Dewpoint Depression Visibility Wind Speed Wind Dir Waves Ship Positions

Sp Dublin

Last reported at 2014-Jul-23 23:30 UTC. Time now 2014-Jul-24 00:20 UTC.
Position N 39°32' W 000°15'.

Length 83 m; draft 5.6 m.

Type: Tanker. MMSI: 215164000.

Date/timePositionNaut miles runAvg speedWind from/ knotsBaromVisibWave heightAir tempDewpointWater temp
2014-Jul-23 23:30N 39°32' W 000°15'2 0.3
2014-Jul-23 16:04N 39°34' W 000°14'4 6.9
2014-Jul-23 15:33N 39°31' W 000°16'5 4.7
2014-Jul-23 14:33N 39°27' W 000°19'0 0.2
2014-Jul-23 13:33N 39°27' W 000°19'1 0.7
2014-Jul-23 12:33N 39°26' W 000°19'0 0.0
2014-Jul-23 11:33N 39°26' W 000°19'0 0.0
2014-Jul-23 10:33N 39°26' W 000°19'0 0.0
2014-Jul-23 09:33N 39°26' W 000°19'0 0.0
2014-Jul-23 08:33N 39°26' W 000°19'0 0.0
2014-Jul-23 07:33N 39°26' W 000°19'1 1.0
2014-Jul-23 06:28N 39°27' W 000°19'0 0.0
2014-Jul-23 05:33N 39°27' W 000°19'0 0.0
2014-Jul-23 04:34N 39°27' W 000°19'0 0.0
2014-Jul-23 03:33N 39°27' W 000°19'0 0.3
2014-Jul-23 02:34N 39°27' W 000°18'0 0.0
2014-Jul-23 01:06N 39°27' W 000°18'0 0.0
2014-Jul-23 00:25N 39°27' W 000°18'0 0.4
2014-Jul-22 23:33N 39°27' W 000°19'0 0.2
2014-Jul-22 22:34N 39°27' W 000°19'0 0.0
2014-Jul-22 21:33N 39°27' W 000°19'0 0.0
2014-Jul-22 20:34N 39°27' W 000°19'0 0.0
2014-Jul-22 19:34N 39°27' W 000°19'0 0.0
2014-Jul-22 18:33N 39°27' W 000°19'0 0.0
2014-Jul-22 17:34N 39°27' W 000°19'0 0.0
2014-Jul-22 16:33N 39°27' W 000°19'0 0.0
2014-Jul-22 15:34N 39°27' W 000°19'0 0.0
2014-Jul-22 14:34N 39°27' W 000°19'0 0.0
2014-Jul-22 13:34N 39°27' W 000°19'0 0.0
2014-Jul-22 12:33N 39°27' W 000°19'0 0.0
2014-Jul-22 11:34N 39°27' W 000°19'0 0.0
2014-Jul-22 10:34N 39°27' W 000°19'0 0.0
2014-Jul-22 09:34N 39°27' W 000°19'0 0.0
2014-Jul-22 08:33N 39°27' W 000°19'0 0.0
2014-Jul-22 07:33N 39°27' W 000°19'0 0.0
2014-Jul-22 06:34N 39°27' W 000°19'0 0.0
2014-Jul-22 05:33N 39°27' W 000°19'0 0.0
2014-Jul-22 04:34N 39°27' W 000°19'0 0.0
2014-Jul-22 03:34N 39°27' W 000°19'0 0.0
2014-Jul-22 02:34N 39°27' W 000°19'0 0.0
2014-Jul-22 01:34N 39°27' W 000°19'0 0.0
2014-Jul-22 00:34N 39°27' W 000°19'0 0.0
2014-Jul-21 23:34N 39°27' W 000°19'0 0.0
2014-Jul-21 22:34N 39°27' W 000°19'0 0.0
2014-Jul-21 21:34N 39°27' W 000°19'0 0.0
2014-Jul-21 20:34N 39°27' W 000°19'0 0.0
2014-Jul-21 20:18N 39°27' W 000°19'0 0.0
2014-Jul-21 19:34N 39°27' W 000°19'0 0.0
2014-Jul-21 18:34N 39°27' W 000°19'0 0.0
2014-Jul-21 17:34N 39°27' W 000°19'0 0.0
2014-Jul-21 16:34N 39°27' W 000°19'0 0.0
2014-Jul-21 15:33N 39°27' W 000°19'0 0.0
2014-Jul-21 14:33N 39°27' W 000°19'0 0.0
2014-Jul-21 13:34N 39°27' W 000°19'0 0.0
2014-Jul-21 12:34N 39°27' W 000°19'1 0.5
2014-Jul-21 11:32N 39°27' W 000°19'0 0.0
2014-Jul-21 09:33N 39°27' W 000°19'0 0.0
2014-Jul-21 08:33N 39°27' W 000°19'0 0.0
2014-Jul-21 07:33N 39°27' W 000°19'1 0.8
2014-Jul-21 06:33N 39°26' W 000°19'1 0.5
2014-Jul-21 05:34N 39°26' W 000°20'0 0.0
2014-Jul-21 04:34N 39°26' W 000°20'0 0.0
2014-Jul-21 03:34N 39°26' W 000°20'0 0.0
2014-Jul-21 02:34N 39°26' W 000°20'0 0.0
2014-Jul-21 01:33N 39°26' W 000°20'0 0.0
2014-Jul-21 00:33N 39°26' W 000°20'1 1.2
2014-Jul-20 23:33N 39°27' W 000°19'0 0.0
2014-Jul-20 22:33N 39°27' W 000°19'0 0.0
2014-Jul-20 21:33N 39°27' W 000°19'0 0.0
2014-Jul-20 20:34N 39°27' W 000°19'0 0.0
2014-Jul-20 19:33N 39°27' W 000°19'0 0.0
2014-Jul-20 18:34N 39°27' W 000°19'0 0.0
2014-Jul-20 17:34N 39°27' W 000°19'0 0.0
2014-Jul-20 16:34N 39°27' W 000°19'0 0.0
2014-Jul-20 15:34N 39°27' W 000°19'0 0.0
2014-Jul-20 14:34N 39°27' W 000°19'0 0.0
2014-Jul-20 13:27N 39°27' W 000°19'0 0.0
2014-Jul-20 12:34N 39°27' W 000°19'0 0.0
2014-Jul-20 11:33N 39°27' W 000°19'0 0.5
2014-Jul-20 10:34N 39°26' W 000°19'0 0.4
2014-Jul-20 09:33N 39°27' W 000°18'0 0.0
2014-Jul-20 08:33N 39°27' W 000°18'0 0.1
2014-Jul-20 07:34N 39°27' W 000°18'1 0.9
2014-Jul-20 06:33N 39°26' W 000°19'0 0.0
2014-Jul-20 05:33N 39°26' W 000°19'0 0.0
2014-Jul-20 04:34N 39°26' W 000°19'0 0.0
2014-Jul-20 03:30N 39°26' W 000°19'0 0.0
2014-Jul-20 02:33N 39°26' W 000°19'1 1.0
2014-Jul-20 01:33N 39°27' W 000°19'0 0.0
2014-Jul-20 00:33N 39°27' W 000°19'0 0.0
2014-Jul-19 23:33N 39°27' W 000°19'0 0.0
2014-Jul-19 22:33N 39°27' W 000°19'1 0.8
2014-Jul-19 21:33N 39°26' W 000°19'0 0.0
2014-Jul-19 20:33N 39°26' W 000°19'0 0.0
2014-Jul-19 19:34N 39°26' W 000°19'0 0.0
2014-Jul-19 18:33N 39°26' W 000°19'1 0.7
2014-Jul-19 17:33N 39°27' W 000°19'0 0.0
2014-Jul-19 16:33N 39°27' W 000°19'0 0.0
2014-Jul-19 15:34N 39°27' W 000°19'0 0.0
2014-Jul-19 14:34N 39°27' W 000°19'0 0.0
2014-Jul-19 13:34N 39°27' W 000°19'0 0.0
2014-Jul-19 12:34N 39°27' W 000°19'0 0.0
2014-Jul-19 11:33N 39°27' W 000°19'1 0.6
2014-Jul-19 10:33N 39°27' W 000°18'0 0.0
2014-Jul-19 09:33N 39°27' W 000°18'0 0.0
2014-Jul-19 08:33N 39°27' W 000°18'0 0.0
2014-Jul-19 07:33N 39°27' W 000°18'1 0.9
2014-Jul-19 06:33N 39°27' W 000°20'0 0.0
2014-Jul-19 05:34N 39°27' W 000°20'0 0.0
2014-Jul-19 04:33N 39°27' W 000°20'1 0.7
2014-Jul-19 03:34N 39°27' W 000°19'0 0.0
2014-Jul-19 02:34N 39°27' W 000°19'0 0.0
2014-Jul-19 01:33N 39°27' W 000°19'0 0.0
2014-Jul-19 00:33N 39°27' W 000°19'0 0.0
2014-Jul-18 23:33N 39°27' W 000°19'0 0.0
2014-Jul-18 22:33N 39°27' W 000°19'0 0.0
2014-Jul-18 21:33N 39°27' W 000°19'0 0.0
2014-Jul-18 20:34N 39°27' W 000°19'1 0.5
2014-Jul-18 19:33N 39°27' W 000°19'0 0.0
2014-Jul-18 18:34N 39°27' W 000°19'0 0.0
2014-Jul-18 17:34N 39°27' W 000°19'0 0.0
2014-Jul-18 16:33N 39°27' W 000°19'0 0.4
2014-Jul-18 15:34N 39°27' W 000°20'0 0.0
2014-Jul-18 14:33N 39°27' W 000°20'0 0.0
2014-Jul-18 13:33N 39°27' W 000°20'0 0.0
2014-Jul-18 12:33N 39°27' W 000°20'0 0.0
2014-Jul-18 11:33N 39°27' W 000°19'1 0.7
2014-Jul-18 10:33N 39°27' W 000°19'0 0.0
2014-Jul-18 09:33N 39°27' W 000°19'0 0.0
2014-Jul-18 08:33N 39°27' W 000°19'0 0.0
2014-Jul-18 07:34N 39°27' W 000°19'0 0.3
2014-Jul-18 06:33N 39°27' W 000°18'0 0.0
2014-Jul-18 05:33N 39°27' W 000°18'0 0.1
2014-Jul-18 04:33N 39°27' W 000°18'1 0.8
2014-Jul-18 03:34N 39°26' W 000°19'0 0.0
2014-Jul-18 02:33N 39°26' W 000°19'0 0.0
2014-Jul-18 01:30N 39°26' W 000°19'0 0.0
2014-Jul-18 00:33N 39°26' W 000°19'0 0.0
2014-Jul-17 23:34N 39°26' W 000°19'1 0.6
2014-Jul-17 22:34N 39°27' W 000°19'0 0.0
2014-Jul-17 21:34N 39°27' W 000°19'0 0.0
2014-Jul-17 20:33N 39°27' W 000°19'0 0.0
2014-Jul-17 19:33N 39°27' W 000°19'0 0.1
2014-Jul-17 18:32N 39°27' W 000°19'0 0.0
2014-Jul-17 17:32N 39°27' W 000°19'0 0.0
2014-Jul-17 16:26N 39°27' W 000°19'0 0.0
2014-Jul-17 15:33N 39°27' W 000°19'0 0.1
2014-Jul-17 14:33N 39°27' W 000°19'0 0.0
2014-Jul-17 13:33N 39°27' W 000°19'1 0.8
2014-Jul-17 12:33N 39°27' W 000°19'0 0.0
2014-Jul-17 11:33N 39°27' W 000°19'0 0.0
2014-Jul-17 10:33N 39°27' W 000°19'0 0.0
2014-Jul-17 09:33N 39°27' W 000°19'0 0.0
2014-Jul-17 08:33N 39°27' W 000°19'0 0.0
2014-Jul-17 07:33N 39°27' W 000°19'1 0.7
2014-Jul-17 06:33N 39°27' W 000°19'0 0.0
2014-Jul-17 05:33N 39°27' W 000°19'0 0.0
2014-Jul-17 04:33N 39°27' W 000°19'0 0.5
2014-Jul-17 03:33N 39°27' W 000°19'0 0.0
2014-Jul-17 02:33N 39°27' W 000°19'0 0.0
2014-Jul-17 01:33N 39°27' W 000°19'0 0.0
2014-Jul-17 00:33N 39°27' W 000°19'0 0.5
2014-Jul-16 23:34N 39°27' W 000°19'0 0.0
2014-Jul-16 22:33N 39°27' W 000°19'0 0.0
2014-Jul-16 21:33N 39°27' W 000°19'0 0.0
2014-Jul-16 20:33N 39°27' W 000°19'0 0.0
2014-Jul-16 19:33N 39°27' W 000°19'0 0.0
2014-Jul-16 18:33N 39°27' W 000°19'0 0.0
2014-Jul-16 17:33N 39°27' W 000°19'0 0.0
2014-Jul-16 16:33N 39°27' W 000°19'1 1.0
2014-Jul-16 15:33N 39°26' W 000°18'2 1.6
2014-Jul-16 14:33N 39°28' W 000°18'0 0.0
2014-Jul-16 13:33N 39°28' W 000°18'0 0.0
2014-Jul-16 12:33N 39°28' W 000°18'0 0.0
2014-Jul-16 11:33N 39°28' W 000°18'1 1.0
2014-Jul-16 10:33N 39°27' W 000°19'0 0.0
2014-Jul-16 09:33N 39°27' W 000°19'0 0.0
2014-Jul-16 08:33N 39°27' W 000°19'0 0.0
2014-Jul-16 07:33N 39°27' W 000°19'0 0.0
2014-Jul-16 06:33N 39°27' W 000°19'0 0.0
2014-Jul-16 05:33N 39°27' W 000°19'0 0.0
2014-Jul-16 04:33N 39°27' W 000°19'0 0.0
2014-Jul-16 03:33N 39°27' W 000°19'0 0.0
2014-Jul-16 02:33N 39°27' W 000°19'0 0.0
2014-Jul-16 01:34N 39°27' W 000°19'0 0.0
2014-Jul-16 00:33N 39°27' W 000°19'0 0.0
2014-Jul-15 23:33N 39°27' W 000°19'0 0.0
2014-Jul-15 22:34N 39°27' W 000°19'0 0.0
2014-Jul-15 21:33N 39°27' W 000°19'0 0.0
2014-Jul-15 20:33N 39°27' W 000°19'0 0.0
2014-Jul-15 19:33N 39°27' W 000°19'0 0.0
2014-Jul-15 18:33N 39°27' W 000°19'0 0.0
2014-Jul-15 17:33N 39°27' W 000°19'1 0.8
2014-Jul-15 16:34N 39°26' W 000°19'0 0.0
2014-Jul-15 15:33N 39°26' W 000°19'0 0.0
2014-Jul-15 14:33N 39°26' W 000°19'0 0.0
2014-Jul-15 13:33N 39°26' W 000°19'1 0.8
2014-Jul-15 12:32N 39°27' W 000°19'0 0.0
2014-Jul-15 11:28N 39°27' W 000°19'0 0.0
2014-Jul-15 10:33N 39°27' W 000°19'0 0.0
2014-Jul-15 09:33N 39°27' W 000°19'0 0.0
2014-Jul-15 08:33N 39°27' W 000°19'0 0.0
2014-Jul-15 07:32N 39°27' W 000°19'0 0.0
2014-Jul-15 06:33N 39°27' W 000°19'0 0.0
2014-Jul-15 05:33N 39°27' W 000°19'0 0.0
2014-Jul-15 04:33N 39°27' W 000°19'0 0.0
2014-Jul-15 03:33N 39°27' W 000°19'0 0.0
2014-Jul-15 02:32N 39°27' W 000°19'0 0.1
2014-Jul-15 01:33N 39°27' W 000°19'0 0.0
2014-Jul-15 00:13N 39°27' W 000°19'0 0.1
2014-Jul-14 23:29N 39°27' W 000°19'0 0.0
2014-Jul-14 22:33N 39°27' W 000°19'0 0.0
2014-Jul-14 21:30N 39°27' W 000°19'0 0.0
2014-Jul-14 20:21N 39°27' W 000°19'0 0.0
2014-Jul-14 19:15N 39°27' W 000°19'0 0.0
2014-Jul-14 18:33N 39°27' W 000°19'0 0.0
2014-Jul-14 17:17N 39°27' W 000°19'0 0.0
2014-Jul-14 16:32N 39°27' W 000°19'0 0.0
2014-Jul-14 15:33N 39°27' W 000°19'0 0.0
2014-Jul-14 14:33N 39°27' W 000°19'0 0.0
2014-Jul-14 13:33N 39°27' W 000°19'0 0.0
2014-Jul-14 12:18N 39°27' W 000°19'0 0.0
2014-Jul-14 11:32N 39°27' W 000°19'0 0.0
2014-Jul-14 10:26N 39°27' W 000°19'0 0.0
2014-Jul-14 09:33N 39°27' W 000°19'0 0.0
2014-Jul-14 08:33N 39°27' W 000°19'0 0.0
2014-Jul-14 07:30N 39°27' W 000°19'0 0.0
2014-Jul-14 06:33N 39°27' W 000°19'0 0.0
2014-Jul-14 05:15N 39°27' W 000°19'0 0.0
2014-Jul-14 04:33N 39°27' W 000°19'0 0.0
2014-Jul-14 03:30N 39°27' W 000°19'0 0.0
2014-Jul-14 02:33N 39°27' W 000°19'0 0.0
2014-Jul-14 01:33N 39°27' W 000°19'0 0.2
2014-Jul-14 00:29N 39°27' W 000°19'0 0.0
2014-Jul-13 23:33N 39°27' W 000°19'  

Dump ship's entire track history